ABB Debt to Equity Ratio 2006-2018 | ABB

Current and historical debt to equity ratio values for ABB (ABB) over the last 10 years. The debt/equity ratio can be defined as a measure of a company's financial leverage calculated by dividing its long-term debt by stockholders' equity. ABB debt/equity for the three months ending September 30, 2018 was 0.45.
ABB Debt/Equity Ratio Historical Data
Date Long Term Debt Shareholder's Equity Debt to Equity Ratio
2018-09-30 $6.62B $14.65B 0.45
2018-06-30 $6.66B $14.18B 0.47
2018-03-31 $5.29B $13.94B 0.38
2017-12-31 $6.71B $15.35B 0.44
2017-09-30 $7.06B $14.75B 0.48
2017-06-30 $6.91B $13.88B 0.50
2017-03-31 $5.89B $14.94B 0.39
2016-12-31 $5.80B $13.90B 0.42
2016-09-30 $6.32B $13.91B 0.45
2016-06-30 $6.36B $13.16B 0.48
2016-03-31 $6.13B $15.37B 0.40
2015-12-31 $5.99B $14.99B 0.40
2015-09-30 $6.57B $15.23B 0.43
2015-06-30 $6.65B $15.01B 0.44
2015-03-31 $7.20B $16.28B 0.44
2014-12-31 $7.31B $16.82B 0.44
2014-09-30 $7.41B $17.65B 0.42
2014-06-30 $7.59B $18.17B 0.42
2014-03-31 $7.61B $19.71B 0.39
2013-12-31 $7.57B $19.21B 0.39
2013-09-30 $7.55B $18.08B 0.42
2013-06-30 $7.42B $16.75B 0.44
2013-03-31 $7.43B $17.74B 0.42
2012-12-31 $7.53B $17.45B 0.43
2012-09-30 $7.06B $17.14B 0.41
2012-06-30 $6.98B $15.91B 0.44
2012-03-31 $5.36B $17.52B 0.31
2011-12-31 $3.23B $16.34B 0.20
2011-09-30 $2.38B $16.35B 0.15
2011-06-30 $2.47B $16.52B 0.15
2011-03-31 $1.19B $16.59B 0.07
2010-12-31 $1.14B $15.46B 0.07
2010-09-30 $2.08B $14.54B 0.14
2010-06-30 $1.89B $14.63B 0.13
2010-03-31 $2.06B $14.70B 0.14
2009-12-31 $2.17B $14.47B 0.15
2009-09-30 $2.22B $13.93B 0.16
2009-06-30 $2.06B $13.28B 0.16
2009-03-31 $1.96B $11.98B 0.16
2008-12-31 $2.01B $11.77B 0.17
2008-09-30 $1.99B $11.72B 0.17
2008-06-30 $2.21B $12.72B 0.17
2008-03-31 $2.34B $11.99B 0.20
2007-12-31 $2.14B $10.96B 0.20
2007-09-30 $2.17B $8.84B 0.25
2007-06-30 $2.28B $7.64B 0.30
2007-03-31 $2.37B $7.23B 0.33
2006-12-31 $3.16B $6.04B 0.52
2006-09-30 $3.09B $5.72B 0.54
2006-06-30 $3.09B $5.38B 0.58
2006-03-31 $3.97B $3.83B 1.03
2005-12-31 $3.93B $3.48B 1.13
2005-09-30 $3.98B $3.30B 1.21
2005-06-30 $4.30B $3.05B 1.41
2005-03-31 $4.69B $2.99B 1.57
Sector Industry Market Cap Revenue
Industrial Products Electrical Machinery $42.387B $34.312B
ABB Ltd, headquartered in Zurich, Switzerland, is engaged in providing power and automation technologies for its utility and industrial customers. The Company provides a range of products, systems, solutions and services that are designed to improve power grid reliability, increase industrial productivity and enhance energy efficiency. ABB is focused on power transmission, distribution and power-plant automation and serves electric, gas and water utilities, as well as industrial and commercial customers. Its Power Products division manufactures three categories of products: High-voltage Products, Medium-voltage Products and Transformers. The key technologies include high- and medium-voltage switchgear, circuit breakers for various current and voltage levels, power and distribution transformers, as well as sensors and products to automate and control electrical and other utility networks. ABB Ltd is structured into four regions: Europe, the Americas, Asia and the Middle East and Africa (MEA).
Stock Name Country Market Cap PE Ratio
Emerson Electric (EMR) United States $41.985B 20.89
Eaton (ETN) Ireland $34.122B 14.63
A O Smith (AOS) United States $8.776B 19.79
Regal Beloit (RBC) United States $3.622B 13.95
Enersys (ENS) United States $3.307B 16.17
Rexnord (RXN) United States $2.934B 15.91
II-VI (IIVI) United States $2.470B 22.39
Franklin Electric (FELE) United States $2.375B 23.52
ESCO Technologies (ESE) United States $1.787B 23.78
SPX FLOW (FLOW) United States $1.488B 14.94
AZZ (AZZ) United States $1.225B 26.53
Powell Industries (POWL) United States $0.407B 0.00
Plug Power (PLUG) United States $0.378B 0.00
Energous (WATT) United States $0.230B 0.00
UQM TECHNOLOGIES INC (UQM) United States $0.090B 0.00
Capstone Turbine (CPST) United States $0.058B 0.00
Pioneer Power Solutions (PPSI) United States $0.046B 9.17
CUI Global (CUI) United States $0.039B 0.00
LGL (LGL) United States $0.033B 30.00
American Electric Technologies (AETI) United States $0.008B 0.00
Ideal Power (IPWR) United States $0.007B 0.00